<?xml version='1.0' encoding='UTF-8'?>
<gpx xmlns="http://www.topografix.com/GPX/1/1" creator="www.balnam.be" version="1.1" xmlns:xsi="http://www.w3.org/2001/XMLSchema-instance" xsi:schemaLocation="http://www.topografix.com/GPX/1/1 http://www.topografix.com/GPX/1/1/gpx.xsd">
<trk>
<name>hsrrc53</name>
<cmt>v</cmt>
<desc>Rance Sentier n°53 Rue de Versailles</desc>
<link href="https://chemins.be/rance/sentier/53"/><trkseg>
<trkpt lat="50.142497" lon="4.278438"><time>2026-05-02T16:01:34Z</time></trkpt>
<trkpt lat="50.142281" lon="4.278704"><time>2026-05-02T16:11:34Z</time></trkpt>
<trkpt lat="50.142192" lon="4.279096"><time>2026-05-02T16:21:34Z</time></trkpt>
<trkpt lat="50.142111" lon="4.279726"><time>2026-05-02T16:31:34Z</time></trkpt>
<trkpt lat="50.142139" lon="4.281013"><time>2026-05-02T16:41:34Z</time></trkpt>
<trkpt lat="50.142095" lon="4.281684"><time>2026-05-02T16:51:34Z</time></trkpt>
<trkpt lat="50.142068" lon="4.282174"><time>2026-05-02T17:01:34Z</time></trkpt>
<trkpt lat="50.141895" lon="4.282999"><time>2026-05-02T17:11:34Z</time></trkpt>
</trkseg></trk>
<trk>
<name>hsrrc53</name>
<cmt>q</cmt>
<desc>Rance Sentier n°53 Rue de Versailles</desc>
<link href="https://chemins.be/rance/sentier/53"/><trkseg>
<trkpt lat="50.141895" lon="4.282999"><time>2026-05-02T17:11:34Z</time></trkpt>
<trkpt lat="50.141862" lon="4.283205"><time>2026-05-02T17:21:34Z</time></trkpt>
<trkpt lat="50.142643" lon="4.283943"><time>2026-05-02T17:31:34Z</time></trkpt>
<trkpt lat="50.142327" lon="4.286183"><time>2026-05-02T17:41:34Z</time></trkpt>
<trkpt lat="50.142591" lon="4.286369"><time>2026-05-02T17:51:34Z</time></trkpt>
</trkseg></trk>
<trk>
<name>hsrrc53</name>
<cmt>r</cmt>
<desc>Rance Sentier n°53 Rue de Versailles</desc>
<link href="https://chemins.be/rance/sentier/53"/><trkseg>
<trkpt lat="50.142591" lon="4.286369"><time>2026-05-02T17:51:34Z</time></trkpt>
<trkpt lat="50.141571" lon="4.288569"><time>2026-05-02T18:01:34Z</time></trkpt>
</trkseg></trk>
<trk>
<name>hsrrc53</name>
<cmt>q</cmt>
<desc>Rance Sentier n°53 Rue de Versailles</desc>
<link href="https://chemins.be/rance/sentier/53"/><trkseg>
<trkpt lat="50.141571" lon="4.288569"><time>2026-05-02T18:01:34Z</time></trkpt>
<trkpt lat="50.142049" lon="4.290183"><time>2026-05-02T18:11:34Z</time></trkpt>
<trkpt lat="50.141747" lon="4.291444"><time>2026-05-02T18:21:34Z</time></trkpt>
<trkpt lat="50.141945" lon="4.291616"><time>2026-05-02T18:31:34Z</time></trkpt>
<trkpt lat="50.141848" lon="4.291970"><time>2026-05-02T18:41:34Z</time></trkpt>
<trkpt lat="50.142187" lon="4.293272"><time>2026-05-02T18:51:34Z</time></trkpt>
<trkpt lat="50.142896" lon="4.295066"><time>2026-05-02T19:01:34Z</time></trkpt>
<trkpt lat="50.143499" lon="4.297290"><time>2026-05-02T19:11:34Z</time></trkpt>
</trkseg></trk>
<trk>
<name>hsrrc53</name>
<cmt>v</cmt>
<desc>Rance Sentier n°53 Rue de Versailles</desc>
<link href="https://chemins.be/rance/sentier/53"/><trkseg>
<trkpt lat="50.143499" lon="4.297290"><time>2026-05-02T19:11:34Z</time></trkpt>
<trkpt lat="50.144360" lon="4.298070"><time>2026-05-02T19:21:34Z</time></trkpt>
</trkseg></trk>
<trk>
<name>hsrrc53</name>
<cmt>q</cmt>
<desc>Rance Sentier n°53 Rue de Versailles</desc>
<link href="https://chemins.be/rance/sentier/53"/><trkseg>
<trkpt lat="50.144360" lon="4.298070"><time>2026-05-02T19:21:34Z</time></trkpt>
<trkpt lat="50.144992" lon="4.299032"><time>2026-05-02T19:31:34Z</time></trkpt>
</trkseg>
</trk>
</gpx>